sensor_id;sensor_type;location;lat;lon;timestamp;temperature;humidity
43581;DHT22;29175;51.030;4.606;2024-01-15T00:00:39;2.70;99.90
43581;DHT22;29175;51.030;4.606;2024-01-15T00:03:05;2.70;99.90
43581;DHT22;29175;51.030;4.606;2024-01-15T00:05:31;2.90;99.90
43581;DHT22;29175;51.030;4.606;2024-01-15T00:07:57;2.80;99.90
43581;DHT22;29175;51.030;4.606;2024-01-15T00:10:23;2.70;99.90
43581;DHT22;29175;51.030;4.606;2024-01-15T00:12:49;2.80;99.90
43581;DHT22;29175;51.030;4.606;2024-01-15T00:15:14;2.80;99.90
43581;DHT22;29175;51.030;4.606;2024-01-15T00:17:40;2.90;99.90
43581;DHT22;29175;51.030;4.606;2024-01-15T00:20:06;2.80;99.90
43581;DHT22;29175;51.030;4.606;2024-01-15T00:22:32;3.00;99.90
43581;DHT22;29175;51.030;4.606;2024-01-15T00:24:57;3.00;99.90
43581;DHT22;29175;51.030;4.606;2024-01-15T00:27:23;3.10;99.90
43581;DHT22;29175;51.030;4.606;2024-01-15T00:29:49;3.20;99.90
43581;DHT22;29175;51.030;4.606;2024-01-15T00:32:19;2.90;99.90
43581;DHT22;29175;51.030;4.606;2024-01-15T00:34:45;3.00;99.90
43581;DHT22;29175;51.030;4.606;2024-01-15T00:37:11;2.90;99.90
43581;DHT22;29175;51.030;4.606;2024-01-15T00:39:36;2.90;99.90
43581;DHT22;29175;51.030;4.606;2024-01-15T00:42:02;2.80;99.90
43581;DHT22;29175;51.030;4.606;2024-01-15T00:44:28;2.80;99.90
43581;DHT22;29175;51.030;4.606;2024-01-15T00:46:55;2.60;99.90
43581;DHT22;29175;51.030;4.606;2024-01-15T00:49:20;2.50;99.90
43581;DHT22;29175;51.030;4.606;2024-01-15T00:51:46;2.60;99.90
43581;DHT22;29175;51.030;4.606;2024-01-15T00:54:13;2.70;99.90
43581;DHT22;29175;51.030;4.606;2024-01-15T00:56:39;2.60;99.90
43581;DHT22;29175;51.030;4.606;2024-01-15T00:59:04;2.50;99.90
43581;DHT22;29175;51.030;4.606;2024-01-15T01:01:30;2.40;99.90
43581;DHT22;29175;51.030;4.606;2024-01-15T01:03:56;2.40;99.90
43581;DHT22;29175;51.030;4.606;2024-01-15T01:06:21;2.40;99.90
43581;DHT22;29175;51.030;4.606;2024-01-15T01:08:48;2.40;99.90
43581;DHT22;29175;51.030;4.606;2024-01-15T01:11:14;2.30;99.90
43581;DHT22;29175;51.030;4.606;2024-01-15T01:13:39;2.20;99.90
43581;DHT22;29175;51.030;4.606;2024-01-15T01:16:06;2.20;99.90
43581;DHT22;29175;51.030;4.606;2024-01-15T01:18:32;2.00;99.90
43581;DHT22;29175;51.030;4.606;2024-01-15T01:20:57;2.00;99.90
43581;DHT22;29175;51.030;4.606;2024-01-15T01:23:23;2.00;99.90
43581;DHT22;29175;51.030;4.606;2024-01-15T01:25:48;2.00;99.90
43581;DHT22;29175;51.030;4.606;2024-01-15T01:28:15;2.10;99.90
43581;DHT22;29175;51.030;4.606;2024-01-15T01:30:41;2.10;99.90
43581;DHT22;29175;51.030;4.606;2024-01-15T01:33:06;2.10;99.90
43581;DHT22;29175;51.030;4.606;2024-01-15T01:35:32;2.00;99.90
43581;DHT22;29175;51.030;4.606;2024-01-15T01:37:58;2.10;99.90
43581;DHT22;29175;51.030;4.606;2024-01-15T01:40:23;2.10;99.90
43581;DHT22;29175;51.030;4.606;2024-01-15T01:42:49;2.10;99.90
43581;DHT22;29175;51.030;4.606;2024-01-15T01:45:15;2.20;99.90
43581;DHT22;29175;51.030;4.606;2024-01-15T01:47:40;2.20;99.90
43581;DHT22;29175;51.030;4.606;2024-01-15T01:50:06;2.20;99.90
43581;DHT22;29175;51.030;4.606;2024-01-15T01:52:32;2.20;99.90
43581;DHT22;29175;51.030;4.606;2024-01-15T01:54:58;2.10;99.90
43581;DHT22;29175;51.030;4.606;2024-01-15T01:57:25;2.10;99.90
43581;DHT22;29175;51.030;4.606;2024-01-15T01:59:51;2.10;99.90
43581;DHT22;29175;51.030;4.606;2024-01-15T02:02:17;2.20;99.90
43581;DHT22;29175;51.030;4.606;2024-01-15T02:04:44;2.20;99.90
43581;DHT22;29175;51.030;4.606;2024-01-15T02:07:09;2.40;99.90
43581;DHT22;29175;51.030;4.606;2024-01-15T02:09:35;2.30;99.90
43581;DHT22;29175;51.030;4.606;2024-01-15T02:12:02;2.30;99.90
43581;DHT22;29175;51.030;4.606;2024-01-15T02:14:27;2.20;99.90
43581;DHT22;29175;51.030;4.606;2024-01-15T02:16:53;2.00;99.90
43581;DHT22;29175;51.030;4.606;2024-01-15T02:19:19;2.00;99.90
43581;DHT22;29175;51.030;4.606;2024-01-15T02:21:44;2.00;99.90
43581;DHT22;29175;51.030;4.606;2024-01-15T02:24:10;2.10;99.90
43581;DHT22;29175;51.030;4.606;2024-01-15T02:26:36;2.10;99.90
43581;DHT22;29175;51.030;4.606;2024-01-15T02:29:04;2.20;99.90
43581;DHT22;29175;51.030;4.606;2024-01-15T02:31:30;2.20;99.90
43581;DHT22;29175;51.030;4.606;2024-01-15T02:33:57;2.30;99.90
43581;DHT22;29175;51.030;4.606;2024-01-15T02:36:23;2.30;99.90
43581;DHT22;29175;51.030;4.606;2024-01-15T02:38:48;2.30;99.90
43581;DHT22;29175;51.030;4.606;2024-01-15T02:41:14;2.30;99.90
43581;DHT22;29175;51.030;4.606;2024-01-15T02:43:40;2.40;99.90
43581;DHT22;29175;51.030;4.606;2024-01-15T02:46:06;2.40;99.90
43581;DHT22;29175;51.030;4.606;2024-01-15T02:48:32;2.40;99.90
43581;DHT22;29175;51.030;4.606;2024-01-15T02:50:58;2.30;99.90
43581;DHT22;29175;51.030;4.606;2024-01-15T02:53:24;2.40;99.90
43581;DHT22;29175;51.030;4.606;2024-01-15T02:55:50;2.50;99.90
43581;DHT22;29175;51.030;4.606;2024-01-15T02:58:15;2.40;99.90
43581;DHT22;29175;51.030;4.606;2024-01-15T03:00:41;2.40;99.90
43581;DHT22;29175;51.030;4.606;2024-01-15T03:03:08;2.40;99.90
43581;DHT22;29175;51.030;4.606;2024-01-15T03:05:33;2.40;99.90
43581;DHT22;29175;51.030;4.606;2024-01-15T03:07:59;2.30;99.90
43581;DHT22;29175;51.030;4.606;2024-01-15T03:10:24;2.40;99.90
43581;DHT22;29175;51.030;4.606;2024-01-15T03:12:50;2.30;99.90
43581;DHT22;29175;51.030;4.606;2024-01-15T03:15:16;2.30;99.90
43581;DHT22;29175;51.030;4.606;2024-01-15T03:17:42;2.40;99.90
43581;DHT22;29175;51.030;4.606;2024-01-15T03:20:08;2.30;99.90
43581;DHT22;29175;51.030;4.606;2024-01-15T03:22:34;2.40;99.90
43581;DHT22;29175;51.030;4.606;2024-01-15T03:24:59;2.60;99.90
43581;DHT22;29175;51.030;4.606;2024-01-15T03:27:25;2.60;99.90
43581;DHT22;29175;51.030;4.606;2024-01-15T03:29:52;2.70;99.90
43581;DHT22;29175;51.030;4.606;2024-01-15T03:32:17;2.70;99.90
43581;DHT22;29175;51.030;4.606;2024-01-15T03:34:48;2.70;99.90
43581;DHT22;29175;51.030;4.606;2024-01-15T03:37:13;2.80;99.90
43581;DHT22;29175;51.030;4.606;2024-01-15T03:39:39;2.70;99.90
43581;DHT22;29175;51.030;4.606;2024-01-15T03:42:04;2.70;99.90
43581;DHT22;29175;51.030;4.606;2024-01-15T03:44:30;2.60;99.90
43581;DHT22;29175;51.030;4.606;2024-01-15T03:46:56;2.60;99.90
43581;DHT22;29175;51.030;4.606;2024-01-15T03:49:23;2.70;99.90
43581;DHT22;29175;51.030;4.606;2024-01-15T03:51:48;2.70;99.90
43581;DHT22;29175;51.030;4.606;2024-01-15T03:54:14;2.80;99.90
43581;DHT22;29175;51.030;4.606;2024-01-15T03:56:40;2.70;99.90
43581;DHT22;29175;51.030;4.606;2024-01-15T03:59:06;2.70;99.90
43581;DHT22;29175;51.030;4.606;2024-01-15T04:01:32;2.60;99.90
43581;DHT22;29175;51.030;4.606;2024-01-15T04:03:58;2.70;99.90
43581;DHT22;29175;51.030;4.606;2024-01-15T04:06:25;2.60;99.90
43581;DHT22;29175;51.030;4.606;2024-01-15T04:08:51;2.60;99.90
43581;DHT22;29175;51.030;4.606;2024-01-15T04:11:17;2.60;99.90
43581;DHT22;29175;51.030;4.606;2024-01-15T04:13:42;2.70;99.90
43581;DHT22;29175;51.030;4.606;2024-01-15T04:16:08;2.60;99.90
43581;DHT22;29175;51.030;4.606;2024-01-15T04:18:34;2.50;99.90
43581;DHT22;29175;51.030;4.606;2024-01-15T04:20:59;2.40;99.90
43581;DHT22;29175;51.030;4.606;2024-01-15T04:23:25;2.40;99.90
43581;DHT22;29175;51.030;4.606;2024-01-15T04:25:50;2.50;99.90
43581;DHT22;29175;51.030;4.606;2024-01-15T04:28:16;2.50;99.90
43581;DHT22;29175;51.030;4.606;2024-01-15T04:30:42;2.50;99.90
43581;DHT22;29175;51.030;4.606;2024-01-15T04:33:07;2.30;99.90
43581;DHT22;29175;51.030;4.606;2024-01-15T04:35:33;2.30;99.90
43581;DHT22;29175;51.030;4.606;2024-01-15T04:37:59;2.10;99.90
43581;DHT22;29175;51.030;4.606;2024-01-15T04:40:24;2.20;99.90
43581;DHT22;29175;51.030;4.606;2024-01-15T04:42:53;2.10;99.90
43581;DHT22;29175;51.030;4.606;2024-01-15T04:45:19;2.10;99.90
43581;DHT22;29175;51.030;4.606;2024-01-15T04:47:45;2.00;99.90
43581;DHT22;29175;51.030;4.606;2024-01-15T04:50:10;1.90;99.90
43581;DHT22;29175;51.030;4.606;2024-01-15T04:52:36;1.90;99.90
43581;DHT22;29175;51.030;4.606;2024-01-15T04:55:02;1.70;99.90
43581;DHT22;29175;51.030;4.606;2024-01-15T04:57:29;1.70;99.90
43581;DHT22;29175;51.030;4.606;2024-01-15T04:59:56;1.90;99.90
43581;DHT22;29175;51.030;4.606;2024-01-15T05:02:22;1.60;99.90
43581;DHT22;29175;51.030;4.606;2024-01-15T05:04:48;1.60;99.90
43581;DHT22;29175;51.030;4.606;2024-01-15T05:07:14;1.70;99.90
43581;DHT22;29175;51.030;4.606;2024-01-15T05:09:39;1.70;99.90
43581;DHT22;29175;51.030;4.606;2024-01-15T05:12:05;1.60;99.90
43581;DHT22;29175;51.030;4.606;2024-01-15T05:14:30;1.50;99.90
43581;DHT22;29175;51.030;4.606;2024-01-15T05:16:57;1.40;99.90
43581;DHT22;29175;51.030;4.606;2024-01-15T05:19:23;1.50;99.90
43581;DHT22;29175;51.030;4.606;2024-01-15T05:21:48;1.50;99.90
43581;DHT22;29175;51.030;4.606;2024-01-15T05:24:14;1.60;99.90
43581;DHT22;29175;51.030;4.606;2024-01-15T05:26:40;1.60;99.90
43581;DHT22;29175;51.030;4.606;2024-01-15T05:29:05;1.60;99.90
43581;DHT22;29175;51.030;4.606;2024-01-15T05:31:31;1.60;99.90
43581;DHT22;29175;51.030;4.606;2024-01-15T05:33:56;1.60;99.90
43581;DHT22;29175;51.030;4.606;2024-01-15T05:36:22;1.60;99.90
43581;DHT22;29175;51.030;4.606;2024-01-15T05:38:48;1.70;99.90
43581;DHT22;29175;51.030;4.606;2024-01-15T05:41:15;1.70;99.90
43581;DHT22;29175;51.030;4.606;2024-01-15T05:43:40;1.60;99.90
43581;DHT22;29175;51.030;4.606;2024-01-15T05:46:06;1.70;99.90
43581;DHT22;29175;51.030;4.606;2024-01-15T05:48:31;1.70;99.90
43581;DHT22;29175;51.030;4.606;2024-01-15T05:50:57;1.70;99.90
43581;DHT22;29175;51.030;4.606;2024-01-15T05:53:23;1.80;99.90
43581;DHT22;29175;51.030;4.606;2024-01-15T05:55:48;1.60;99.90
43581;DHT22;29175;51.030;4.606;2024-01-15T05:58:14;1.60;99.90
43581;DHT22;29175;51.030;4.606;2024-01-15T06:00:40;1.60;99.90
43581;DHT22;29175;51.030;4.606;2024-01-15T06:03:05;1.70;99.90
43581;DHT22;29175;51.030;4.606;2024-01-15T06:05:31;1.70;99.90
43581;DHT22;29175;51.030;4.606;2024-01-15T06:07:58;1.80;99.90
43581;DHT22;29175;51.030;4.606;2024-01-15T06:10:24;1.70;99.90
43581;DHT22;29175;51.030;4.606;2024-01-15T06:12:49;1.70;99.90
43581;DHT22;29175;51.030;4.606;2024-01-15T06:15:15;1.80;99.90
43581;DHT22;29175;51.030;4.606;2024-01-15T06:17:41;1.90;99.90
43581;DHT22;29175;51.030;4.606;2024-01-15T06:20:06;1.90;99.90
43581;DHT22;29175;51.030;4.606;2024-01-15T06:22:32;1.80;99.90
43581;DHT22;29175;51.030;4.606;2024-01-15T06:24:58;1.80;99.90
43581;DHT22;29175;51.030;4.606;2024-01-15T06:27:24;1.80;99.90
43581;DHT22;29175;51.030;4.606;2024-01-15T06:29:49;1.70;99.90
43581;DHT22;29175;51.030;4.606;2024-01-15T06:32:15;1.80;99.90
43581;DHT22;29175;51.030;4.606;2024-01-15T06:34:40;1.80;99.90
43581;DHT22;29175;51.030;4.606;2024-01-15T06:37:06;1.70;99.90
43581;DHT22;29175;51.030;4.606;2024-01-15T06:39:32;1.70;99.90
43581;DHT22;29175;51.030;4.606;2024-01-15T06:41:59;1.70;99.90
43581;DHT22;29175;51.030;4.606;2024-01-15T06:44:25;1.70;99.90
43581;DHT22;29175;51.030;4.606;2024-01-15T06:46:50;1.80;99.90
43581;DHT22;29175;51.030;4.606;2024-01-15T06:49:17;1.70;99.90
43581;DHT22;29175;51.030;4.606;2024-01-15T06:51:42;1.70;99.90
43581;DHT22;29175;51.030;4.606;2024-01-15T06:54:08;1.70;99.90
43581;DHT22;29175;51.030;4.606;2024-01-15T06:56:34;1.70;99.90
43581;DHT22;29175;51.030;4.606;2024-01-15T06:59:00;1.60;99.90
43581;DHT22;29175;51.030;4.606;2024-01-15T07:01:27;1.70;99.90
43581;DHT22;29175;51.030;4.606;2024-01-15T07:03:55;1.70;99.90
43581;DHT22;29175;51.030;4.606;2024-01-15T07:06:20;1.60;99.90
43581;DHT22;29175;51.030;4.606;2024-01-15T07:08:46;1.70;99.90
43581;DHT22;29175;51.030;4.606;2024-01-15T07:11:11;1.60;99.90
43581;DHT22;29175;51.030;4.606;2024-01-15T07:13:40;1.60;99.90
43581;DHT22;29175;51.030;4.606;2024-01-15T07:16:07;1.60;99.90
43581;DHT22;29175;51.030;4.606;2024-01-15T07:18:32;1.50;99.90
43581;DHT22;29175;51.030;4.606;2024-01-15T07:20:59;1.50;99.90
43581;DHT22;29175;51.030;4.606;2024-01-15T07:23:26;1.60;99.90
43581;DHT22;29175;51.030;4.606;2024-01-15T07:25:53;1.70;99.90
43581;DHT22;29175;51.030;4.606;2024-01-15T07:28:19;1.60;99.90
43581;DHT22;29175;51.030;4.606;2024-01-15T07:30:45;1.60;99.90
43581;DHT22;29175;51.030;4.606;2024-01-15T07:33:10;1.60;99.90
43581;DHT22;29175;51.030;4.606;2024-01-15T07:35:36;1.70;99.90
43581;DHT22;29175;51.030;4.606;2024-01-15T07:38:02;1.70;99.90
43581;DHT22;29175;51.030;4.606;2024-01-15T07:40:28;1.70;99.90
43581;DHT22;29175;51.030;4.606;2024-01-15T07:42:53;1.80;99.90
43581;DHT22;29175;51.030;4.606;2024-01-15T07:45:19;1.80;99.90
43581;DHT22;29175;51.030;4.606;2024-01-15T07:47:44;1.90;99.90
43581;DHT22;29175;51.030;4.606;2024-01-15T07:50:10;1.90;99.90
43581;DHT22;29175;51.030;4.606;2024-01-15T07:52:37;1.90;99.90
43581;DHT22;29175;51.030;4.606;2024-01-15T07:55:02;1.90;99.90
43581;DHT22;29175;51.030;4.606;2024-01-15T07:57:31;1.90;99.90
43581;DHT22;29175;51.030;4.606;2024-01-15T07:59:56;2.00;99.90
43581;DHT22;29175;51.030;4.606;2024-01-15T08:02:22;2.20;99.90
43581;DHT22;29175;51.030;4.606;2024-01-15T08:04:47;2.10;99.90
43581;DHT22;29175;51.030;4.606;2024-01-15T08:07:13;2.20;99.90
43581;DHT22;29175;51.030;4.606;2024-01-15T08:09:38;2.20;99.90
43581;DHT22;29175;51.030;4.606;2024-01-15T08:12:04;2.20;99.90
43581;DHT22;29175;51.030;4.606;2024-01-15T08:14:32;2.30;99.90
43581;DHT22;29175;51.030;4.606;2024-01-15T08:16:57;2.20;99.90
43581;DHT22;29175;51.030;4.606;2024-01-15T08:19:23;2.10;99.90
43581;DHT22;29175;51.030;4.606;2024-01-15T08:21:49;2.10;99.90
43581;DHT22;29175;51.030;4.606;2024-01-15T08:24:14;2.40;99.90
43581;DHT22;29175;51.030;4.606;2024-01-15T08:26:40;2.40;99.90
43581;DHT22;29175;51.030;4.606;2024-01-15T08:29:05;2.60;99.90
43581;DHT22;29175;51.030;4.606;2024-01-15T08:31:31;2.60;99.90
43581;DHT22;29175;51.030;4.606;2024-01-15T08:33:56;2.30;99.90
43581;DHT22;29175;51.030;4.606;2024-01-15T08:36:23;2.40;99.90
43581;DHT22;29175;51.030;4.606;2024-01-15T08:38:49;2.50;99.90
43581;DHT22;29175;51.030;4.606;2024-01-15T08:41:15;2.60;99.90
43581;DHT22;29175;51.030;4.606;2024-01-15T08:43:41;2.60;99.90
43581;DHT22;29175;51.030;4.606;2024-01-15T08:46:06;2.60;99.90
43581;DHT22;29175;51.030;4.606;2024-01-15T08:48:32;2.70;99.90
43581;DHT22;29175;51.030;4.606;2024-01-15T08:50:58;2.40;99.90
43581;DHT22;29175;51.030;4.606;2024-01-15T08:53:23;2.40;99.90
43581;DHT22;29175;51.030;4.606;2024-01-15T08:55:49;2.60;99.90
43581;DHT22;29175;51.030;4.606;2024-01-15T08:58:15;2.60;99.90
43581;DHT22;29175;51.030;4.606;2024-01-15T09:00:40;2.70;99.90
43581;DHT22;29175;51.030;4.606;2024-01-15T09:03:06;2.60;99.90
43581;DHT22;29175;51.030;4.606;2024-01-15T09:05:31;2.70;99.90
43581;DHT22;29175;51.030;4.606;2024-01-15T09:07:57;2.90;99.90
43581;DHT22;29175;51.030;4.606;2024-01-15T09:10:24;3.00;99.90
43581;DHT22;29175;51.030;4.606;2024-01-15T09:12:49;3.00;99.90
43581;DHT22;29175;51.030;4.606;2024-01-15T09:15:17;3.30;99.90
43581;DHT22;29175;51.030;4.606;2024-01-15T09:17:44;3.10;99.90
43581;DHT22;29175;51.030;4.606;2024-01-15T09:20:10;3.00;99.90
43581;DHT22;29175;51.030;4.606;2024-01-15T09:22:40;3.10;99.90
43581;DHT22;29175;51.030;4.606;2024-01-15T09:25:08;3.20;99.90
43581;DHT22;29175;51.030;4.606;2024-01-15T09:27:35;3.30;99.90
43581;DHT22;29175;51.030;4.606;2024-01-15T09:30:01;3.30;99.90
43581;DHT22;29175;51.030;4.606;2024-01-15T09:32:27;3.20;99.90
43581;DHT22;29175;51.030;4.606;2024-01-15T09:34:52;3.10;99.90
43581;DHT22;29175;51.030;4.606;2024-01-15T09:37:19;3.10;99.90
43581;DHT22;29175;51.030;4.606;2024-01-15T09:39:51;3.00;99.90
43581;DHT22;29175;51.030;4.606;2024-01-15T09:42:16;2.90;99.90
43581;DHT22;29175;51.030;4.606;2024-01-15T09:44:43;2.90;99.90
43581;DHT22;29175;51.030;4.606;2024-01-15T09:47:18;2.90;99.90
43581;DHT22;29175;51.030;4.606;2024-01-15T09:49:45;2.90;99.90
43581;DHT22;29175;51.030;4.606;2024-01-15T09:52:11;2.70;99.90
43581;DHT22;29175;51.030;4.606;2024-01-15T09:54:37;2.70;99.90
43581;DHT22;29175;51.030;4.606;2024-01-15T09:57:04;2.80;99.90
43581;DHT22;29175;51.030;4.606;2024-01-15T09:59:30;2.90;99.90
43581;DHT22;29175;51.030;4.606;2024-01-15T10:01:57;2.90;99.90
43581;DHT22;29175;51.030;4.606;2024-01-15T10:04:25;3.10;99.90
43581;DHT22;29175;51.030;4.606;2024-01-15T10:06:51;3.30;99.90
43581;DHT22;29175;51.030;4.606;2024-01-15T10:09:17;3.40;99.90
43581;DHT22;29175;51.030;4.606;2024-01-15T10:11:43;3.30;99.90
43581;DHT22;29175;51.030;4.606;2024-01-15T10:14:10;3.30;99.90
43581;DHT22;29175;51.030;4.606;2024-01-15T10:16:40;3.40;99.90
43581;DHT22;29175;51.030;4.606;2024-01-15T10:19:05;3.40;99.90
43581;DHT22;29175;51.030;4.606;2024-01-15T10:21:32;3.40;99.90
43581;DHT22;29175;51.030;4.606;2024-01-15T10:24:01;3.40;99.90
43581;DHT22;29175;51.030;4.606;2024-01-15T10:26:29;3.40;99.90
43581;DHT22;29175;51.030;4.606;2024-01-15T10:28:58;3.50;99.90
43581;DHT22;29175;51.030;4.606;2024-01-15T10:31:25;3.50;99.90
43581;DHT22;29175;51.030;4.606;2024-01-15T10:33:51;3.60;99.90
43581;DHT22;29175;51.030;4.606;2024-01-15T10:36:18;4.00;99.90
43581;DHT22;29175;51.030;4.606;2024-01-15T10:38:46;4.40;99.90
43581;DHT22;29175;51.030;4.606;2024-01-15T10:41:12;4.90;99.90
43581;DHT22;29175;51.030;4.606;2024-01-15T10:43:38;5.10;99.90
43581;DHT22;29175;51.030;4.606;2024-01-15T10:46:07;4.90;99.90
43581;DHT22;29175;51.030;4.606;2024-01-15T10:48:34;4.70;99.90
43581;DHT22;29175;51.030;4.606;2024-01-15T10:51:01;4.70;99.90
43581;DHT22;29175;51.030;4.606;2024-01-15T10:53:29;4.90;99.90
43581;DHT22;29175;51.030;4.606;2024-01-15T10:55:58;5.60;99.90
43581;DHT22;29175;51.030;4.606;2024-01-15T10:58:25;7.00;99.90
43581;DHT22;29175;51.030;4.606;2024-01-15T11:00:55;7.00;99.90
43581;DHT22;29175;51.030;4.606;2024-01-15T11:03:20;6.40;99.90
43581;DHT22;29175;51.030;4.606;2024-01-15T11:05:46;6.00;99.90
43581;DHT22;29175;51.030;4.606;2024-01-15T11:08:13;6.10;99.90
43581;DHT22;29175;51.030;4.606;2024-01-15T11:10:44;5.80;99.90
43581;DHT22;29175;51.030;4.606;2024-01-15T11:16:05;5.40;99.90
43581;DHT22;29175;51.030;4.606;2024-01-15T11:23:56;5.60;99.90
43581;DHT22;29175;51.030;4.606;2024-01-15T11:34:21;5.10;99.90
43581;DHT22;29175;51.030;4.606;2024-01-15T11:37:07;5.30;99.90
43581;DHT22;29175;51.030;4.606;2024-01-15T11:42:02;5.80;99.90
43581;DHT22;29175;51.030;4.606;2024-01-15T11:44:32;6.40;99.90
43581;DHT22;29175;51.030;4.606;2024-01-15T11:46:59;6.60;99.90
43581;DHT22;29175;51.030;4.606;2024-01-15T11:52:01;7.20;99.90
43581;DHT22;29175;51.030;4.606;2024-01-15T11:54:27;7.80;99.90
43581;DHT22;29175;51.030;4.606;2024-01-15T11:59:28;7.10;99.90
43581;DHT22;29175;51.030;4.606;2024-01-15T12:01:54;6.40;99.90
43581;DHT22;29175;51.030;4.606;2024-01-15T12:04:20;5.80;99.90
43581;DHT22;29175;51.030;4.606;2024-01-15T12:06:48;5.50;99.90
43581;DHT22;29175;51.030;4.606;2024-01-15T12:09:15;5.00;99.90
43581;DHT22;29175;51.030;4.606;2024-01-15T12:11:45;5.00;99.90
43581;DHT22;29175;51.030;4.606;2024-01-15T12:14:14;5.00;99.90
43581;DHT22;29175;51.030;4.606;2024-01-15T12:16:41;4.90;99.90
43581;DHT22;29175;51.030;4.606;2024-01-15T12:19:07;4.90;99.90
43581;DHT22;29175;51.030;4.606;2024-01-15T12:21:33;5.10;99.90
43581;DHT22;29175;51.030;4.606;2024-01-15T12:23:58;5.60;99.90
43581;DHT22;29175;51.030;4.606;2024-01-15T12:26:24;6.00;99.90
43581;DHT22;29175;51.030;4.606;2024-01-15T12:28:51;6.10;99.90
43581;DHT22;29175;51.030;4.606;2024-01-15T12:31:19;5.90;99.90
43581;DHT22;29175;51.030;4.606;2024-01-15T12:33:45;5.90;99.90
43581;DHT22;29175;51.030;4.606;2024-01-15T12:36:12;5.90;99.90
43581;DHT22;29175;51.030;4.606;2024-01-15T12:38:38;5.80;99.90
43581;DHT22;29175;51.030;4.606;2024-01-15T12:41:05;5.50;99.90
43581;DHT22;29175;51.030;4.606;2024-01-15T12:43:33;5.20;99.90
43581;DHT22;29175;51.030;4.606;2024-01-15T12:50:57;2.70;99.90
43581;DHT22;29175;51.030;4.606;2024-01-15T12:53:26;2.00;99.90
43581;DHT22;29175;51.030;4.606;2024-01-15T12:55:53;1.80;99.90
43581;DHT22;29175;51.030;4.606;2024-01-15T12:58:22;1.80;99.90
43581;DHT22;29175;51.030;4.606;2024-01-15T13:00:49;1.90;99.90
43581;DHT22;29175;51.030;4.606;2024-01-15T13:03:16;1.90;99.90
43581;DHT22;29175;51.030;4.606;2024-01-15T13:05:41;2.00;99.90
43581;DHT22;29175;51.030;4.606;2024-01-15T13:10:36;2.20;99.90
43581;DHT22;29175;51.030;4.606;2024-01-15T13:13:01;2.30;99.90
43581;DHT22;29175;51.030;4.606;2024-01-15T13:15:30;2.20;99.90
43581;DHT22;29175;51.030;4.606;2024-01-15T13:17:59;2.20;99.90
43581;DHT22;29175;51.030;4.606;2024-01-15T13:20:28;2.20;99.90
43581;DHT22;29175;51.030;4.606;2024-01-15T13:22:54;2.30;99.90
43581;DHT22;29175;51.030;4.606;2024-01-15T13:25:22;2.40;99.90
43581;DHT22;29175;51.030;4.606;2024-01-15T13:27:49;2.60;99.90
43581;DHT22;29175;51.030;4.606;2024-01-15T13:30:14;2.70;99.90
43581;DHT22;29175;51.030;4.606;2024-01-15T13:32:41;2.50;99.90
43581;DHT22;29175;51.030;4.606;2024-01-15T13:35:07;2.30;99.90
43581;DHT22;29175;51.030;4.606;2024-01-15T13:37:38;2.10;99.90
43581;DHT22;29175;51.030;4.606;2024-01-15T13:40:07;2.00;99.90
43581;DHT22;29175;51.030;4.606;2024-01-15T13:42:35;2.00;99.90
43581;DHT22;29175;51.030;4.606;2024-01-15T13:45:04;2.00;99.90
43581;DHT22;29175;51.030;4.606;2024-01-15T13:47:31;2.10;99.90
43581;DHT22;29175;51.030;4.606;2024-01-15T13:50:12;2.30;99.90
43581;DHT22;29175;51.030;4.606;2024-01-15T13:55:07;2.20;99.90
43581;DHT22;29175;51.030;4.606;2024-01-15T13:57:44;2.20;99.90
43581;DHT22;29175;51.030;4.606;2024-01-15T14:00:11;2.20;99.90
43581;DHT22;29175;51.030;4.606;2024-01-15T14:02:40;2.20;99.90
43581;DHT22;29175;51.030;4.606;2024-01-15T14:05:12;2.30;99.90
43581;DHT22;29175;51.030;4.606;2024-01-15T14:07:42;2.30;99.90
43581;DHT22;29175;51.030;4.606;2024-01-15T14:10:09;2.40;99.90
43581;DHT22;29175;51.030;4.606;2024-01-15T14:12:38;2.30;99.90
43581;DHT22;29175;51.030;4.606;2024-01-15T14:18:11;1.80;99.90
43581;DHT22;29175;51.030;4.606;2024-01-15T14:20:40;1.70;99.90
43581;DHT22;29175;51.030;4.606;2024-01-15T14:23:07;1.70;99.90
43581;DHT22;29175;51.030;4.606;2024-01-15T14:25:34;1.80;99.90
43581;DHT22;29175;51.030;4.606;2024-01-15T14:28:00;2.00;99.90
43581;DHT22;29175;51.030;4.606;2024-01-15T14:30:29;2.00;99.90
43581;DHT22;29175;51.030;4.606;2024-01-15T14:32:55;2.10;99.90
43581;DHT22;29175;51.030;4.606;2024-01-15T14:37:52;2.50;99.90
43581;DHT22;29175;51.030;4.606;2024-01-15T14:45:19;2.80;99.90
43581;DHT22;29175;51.030;4.606;2024-01-15T14:47:48;2.80;99.90
43581;DHT22;29175;51.030;4.606;2024-01-15T14:50:15;3.00;99.90
43581;DHT22;29175;51.030;4.606;2024-01-15T14:52:40;3.20;99.90
43581;DHT22;29175;51.030;4.606;2024-01-15T14:55:12;3.40;99.90
43581;DHT22;29175;51.030;4.606;2024-01-15T14:57:40;3.60;99.90
43581;DHT22;29175;51.030;4.606;2024-01-15T15:00:06;3.70;99.90
43581;DHT22;29175;51.030;4.606;2024-01-15T15:02:36;3.60;99.90
43581;DHT22;29175;51.030;4.606;2024-01-15T15:05:02;3.30;99.90
43581;DHT22;29175;51.030;4.606;2024-01-15T15:07:31;3.30;99.90
43581;DHT22;29175;51.030;4.606;2024-01-15T15:09:57;3.30;99.90
43581;DHT22;29175;51.030;4.606;2024-01-15T15:12:23;3.40;99.90
43581;DHT22;29175;51.030;4.606;2024-01-15T15:14:49;3.40;99.90
43581;DHT22;29175;51.030;4.606;2024-01-15T15:17:15;3.40;99.90
43581;DHT22;29175;51.030;4.606;2024-01-15T15:19:41;3.20;99.90
43581;DHT22;29175;51.030;4.606;2024-01-15T15:22:07;3.00;99.90
43581;DHT22;29175;51.030;4.606;2024-01-15T15:24:36;2.90;99.90
43581;DHT22;29175;51.030;4.606;2024-01-15T15:27:02;2.80;99.90
43581;DHT22;29175;51.030;4.606;2024-01-15T15:29:30;2.80;99.90
43581;DHT22;29175;51.030;4.606;2024-01-15T15:31:58;2.80;99.90
43581;DHT22;29175;51.030;4.606;2024-01-15T15:34:26;2.90;99.90
43581;DHT22;29175;51.030;4.606;2024-01-15T15:36:55;2.90;99.90
43581;DHT22;29175;51.030;4.606;2024-01-15T15:39:24;2.90;99.90
43581;DHT22;29175;51.030;4.606;2024-01-15T15:41:53;2.80;99.90
43581;DHT22;29175;51.030;4.606;2024-01-15T15:44:29;2.90;99.90
43581;DHT22;29175;51.030;4.606;2024-01-15T15:46:57;2.70;99.90
43581;DHT22;29175;51.030;4.606;2024-01-15T15:49:24;2.70;99.90
43581;DHT22;29175;51.030;4.606;2024-01-15T15:51:50;2.70;99.90
43581;DHT22;29175;51.030;4.606;2024-01-15T15:54:18;2.80;99.90
43581;DHT22;29175;51.030;4.606;2024-01-15T15:56:44;2.70;99.90
43581;DHT22;29175;51.030;4.606;2024-01-15T15:59:14;2.90;99.90
43581;DHT22;29175;51.030;4.606;2024-01-15T16:01:43;2.80;99.90
43581;DHT22;29175;51.030;4.606;2024-01-15T16:06:43;2.80;99.90
43581;DHT22;29175;51.030;4.606;2024-01-15T16:09:08;2.70;99.90
43581;DHT22;29175;51.030;4.606;2024-01-15T16:11:41;2.70;99.90
43581;DHT22;29175;51.030;4.606;2024-01-15T16:14:10;2.40;99.90
43581;DHT22;29175;51.030;4.606;2024-01-15T16:19:04;2.20;99.90
43581;DHT22;29175;51.030;4.606;2024-01-15T16:21:31;2.30;99.90
43581;DHT22;29175;51.030;4.606;2024-01-15T16:23:58;2.30;99.90
43581;DHT22;29175;51.030;4.606;2024-01-15T16:26:41;2.20;99.90
43581;DHT22;29175;51.030;4.606;2024-01-15T16:31:39;1.90;99.90